sensor_id;sensor_type;location;lat;lon;timestamp;pressure;altitude;pressure_sealevel;temperature;humidity
26112;BME280;13829;48.990;8.346;2022-07-06T00:01:56;101061.66;;;20.45;50.58
26112;BME280;13829;48.990;8.346;2022-07-06T00:04:23;101065.25;;;20.44;50.19
26112;BME280;13829;48.990;8.346;2022-07-06T00:06:50;101065.56;;;20.31;50.73
26112;BME280;13829;48.990;8.346;2022-07-06T00:09:17;101059.06;;;20.42;50.69
26112;BME280;13829;48.990;8.346;2022-07-06T00:11:44;101065.44;;;20.36;51.14
26112;BME280;13829;48.990;8.346;2022-07-06T00:14:11;101063.03;;;20.25;51.63
26112;BME280;13829;48.990;8.346;2022-07-06T00:16:40;101069.34;;;20.23;51.82
26112;BME280;13829;48.990;8.346;2022-07-06T00:19:07;101069.28;;;20.26;52.13
26112;BME280;13829;48.990;8.346;2022-07-06T00:21:33;101070.53;;;20.11;52.41
26112;BME280;13829;48.990;8.346;2022-07-06T00:24:01;101070.81;;;19.98;53.12
26112;BME280;13829;48.990;8.346;2022-07-06T00:26:28;101075.28;;;19.96;53.10
26112;BME280;13829;48.990;8.346;2022-07-06T00:28:54;101073.44;;;20.00;53.40
26112;BME280;13829;48.990;8.346;2022-07-06T00:31:21;101078.69;;;20.04;53.21
26112;BME280;13829;48.990;8.346;2022-07-06T00:33:50;101075.75;;;19.75;54.26
26112;BME280;13829;48.990;8.346;2022-07-06T00:36:17;101084.75;;;19.70;54.61
26112;BME280;13829;48.990;8.346;2022-07-06T00:38:45;101084.63;;;19.77;54.66
26112;BME280;13829;48.990;8.346;2022-07-06T00:41:12;101089.00;;;19.79;54.51
26112;BME280;13829;48.990;8.346;2022-07-06T00:43:51;101093.44;;;19.80;54.28
26112;BME280;13829;48.990;8.346;2022-07-06T00:46:19;101094.59;;;19.67;54.91
26112;BME280;13829;48.990;8.346;2022-07-06T00:48:46;101092.72;;;19.72;54.92
26112;BME280;13829;48.990;8.346;2022-07-06T00:51:15;101099.13;;;19.63;55.03
26112;BME280;13829;48.990;8.346;2022-07-06T00:53:43;101086.84;;;19.56;55.34
26112;BME280;13829;48.990;8.346;2022-07-06T00:56:11;101092.19;;;19.56;55.79
26112;BME280;13829;48.990;8.346;2022-07-06T00:58:39;101084.34;;;19.48;56.45
26112;BME280;13829;48.990;8.346;2022-07-06T01:01:06;101090.75;;;19.39;56.64
26112;BME280;13829;48.990;8.346;2022-07-06T01:03:33;101084.88;;;19.64;55.88
26112;BME280;13829;48.990;8.346;2022-07-06T01:06:00;101087.34;;;19.31;57.05
26112;BME280;13829;48.990;8.346;2022-07-06T01:08:29;101090.13;;;19.25;57.54
26112;BME280;13829;48.990;8.346;2022-07-06T01:10:56;101076.03;;;19.20;57.67
26112;BME280;13829;48.990;8.346;2022-07-06T01:13:25;101079.72;;;19.14;58.19
26112;BME280;13829;48.990;8.346;2022-07-06T01:15:52;101085.16;;;19.08;58.42
26112;BME280;13829;48.990;8.346;2022-07-06T01:18:20;101080.22;;;19.33;57.69
26112;BME280;13829;48.990;8.346;2022-07-06T01:20:48;101080.69;;;19.09;58.49
26112;BME280;13829;48.990;8.346;2022-07-06T01:23:15;101075.53;;;18.99;59.21
26112;BME280;13829;48.990;8.346;2022-07-06T01:25:42;101077.31;;;19.00;59.27
26112;BME280;13829;48.990;8.346;2022-07-06T01:28:10;101077.25;;;19.03;58.83
26112;BME280;13829;48.990;8.346;2022-07-06T01:30:37;101070.34;;;18.93;59.68
26112;BME280;13829;48.990;8.346;2022-07-06T01:33:03;101069.31;;;19.00;59.30
26112;BME280;13829;48.990;8.346;2022-07-06T01:35:33;101069.88;;;19.18;58.94
26112;BME280;13829;48.990;8.346;2022-07-06T01:38:03;101075.66;;;18.93;59.55
26112;BME280;13829;48.990;8.346;2022-07-06T01:40:30;101066.75;;;18.94;59.84
26112;BME280;13829;48.990;8.346;2022-07-06T01:42:57;101075.69;;;18.92;60.16
26112;BME280;13829;48.990;8.346;2022-07-06T01:45:24;101065.31;;;18.74;61.15
26112;BME280;13829;48.990;8.346;2022-07-06T01:47:51;101068.38;;;19.03;59.93
26112;BME280;13829;48.990;8.346;2022-07-06T01:50:18;101067.63;;;18.95;60.10
26112;BME280;13829;48.990;8.346;2022-07-06T01:52:45;101067.81;;;18.82;60.58
26112;BME280;13829;48.990;8.346;2022-07-06T01:55:14;101074.25;;;18.70;61.28
26112;BME280;13829;48.990;8.346;2022-07-06T01:57:40;101065.56;;;18.62;61.82
26112;BME280;13829;48.990;8.346;2022-07-06T02:00:09;101082.13;;;18.78;61.18
26112;BME280;13829;48.990;8.346;2022-07-06T02:02:36;101083.47;;;18.52;62.82
26112;BME280;13829;48.990;8.346;2022-07-06T02:05:03;101084.19;;;18.61;61.86
26112;BME280;13829;48.990;8.346;2022-07-06T02:07:30;101088.44;;;18.72;61.72
26112;BME280;13829;48.990;8.346;2022-07-06T02:09:57;101086.59;;;18.78;61.96
26112;BME280;13829;48.990;8.346;2022-07-06T02:12:25;101081.25;;;18.78;61.44
26112;BME280;13829;48.990;8.346;2022-07-06T02:14:52;101080.75;;;18.55;62.70
26112;BME280;13829;48.990;8.346;2022-07-06T02:17:19;101079.88;;;18.55;62.58
26112;BME280;13829;48.990;8.346;2022-07-06T02:19:46;101069.00;;;18.67;62.11
26112;BME280;13829;48.990;8.346;2022-07-06T02:22:13;101081.41;;;18.68;62.47
26112;BME280;13829;48.990;8.346;2022-07-06T02:24:40;101071.00;;;18.53;62.78
26112;BME280;13829;48.990;8.346;2022-07-06T02:27:07;101082.25;;;18.70;61.92
26112;BME280;13829;48.990;8.346;2022-07-06T02:29:35;101087.03;;;18.51;62.74
26112;BME280;13829;48.990;8.346;2022-07-06T02:32:03;101083.53;;;18.48;63.08
26112;BME280;13829;48.990;8.346;2022-07-06T02:34:30;101082.50;;;18.56;63.02
26112;BME280;13829;48.990;8.346;2022-07-06T02:36:56;101084.75;;;18.28;64.08
26112;BME280;13829;48.990;8.346;2022-07-06T02:39:23;101088.31;;;18.27;64.36
26112;BME280;13829;48.990;8.346;2022-07-06T02:41:50;101091.94;;;18.21;64.44
26112;BME280;13829;48.990;8.346;2022-07-06T02:44:17;101092.97;;;18.14;64.97
26112;BME280;13829;48.990;8.346;2022-07-06T02:46:46;101104.59;;;18.07;65.22
26112;BME280;13829;48.990;8.346;2022-07-06T02:49:12;101097.59;;;18.00;65.48
26112;BME280;13829;48.990;8.346;2022-07-06T02:51:39;101102.28;;;17.81;66.09
26112;BME280;13829;48.990;8.346;2022-07-06T02:54:06;101099.47;;;17.91;65.80
26112;BME280;13829;48.990;8.346;2022-07-06T02:56:33;101107.31;;;18.02;65.20
26112;BME280;13829;48.990;8.346;2022-07-06T02:59:00;101116.31;;;17.92;65.61
26112;BME280;13829;48.990;8.346;2022-07-06T03:01:28;101110.22;;;17.82;66.09
26112;BME280;13829;48.990;8.346;2022-07-06T03:03:56;101109.88;;;18.10;65.26
26112;BME280;13829;48.990;8.346;2022-07-06T03:06:23;101120.63;;;18.02;65.11
26112;BME280;13829;48.990;8.346;2022-07-06T03:08:50;101123.13;;;18.15;64.52
26112;BME280;13829;48.990;8.346;2022-07-06T03:11:17;101121.69;;;17.89;65.83
26112;BME280;13829;48.990;8.346;2022-07-06T03:13:44;101128.81;;;17.87;65.69
26112;BME280;13829;48.990;8.346;2022-07-06T03:16:11;101126.09;;;17.91;65.68
26112;BME280;13829;48.990;8.346;2022-07-06T03:18:38;101127.16;;;17.78;66.23
26112;BME280;13829;48.990;8.346;2022-07-06T03:21:06;101129.78;;;17.80;66.03
26112;BME280;13829;48.990;8.346;2022-07-06T03:23:33;101127.22;;;17.72;66.48
26112;BME280;13829;48.990;8.346;2022-07-06T03:26:00;101130.63;;;17.83;66.07
26112;BME280;13829;48.990;8.346;2022-07-06T03:28:27;101139.53;;;17.81;65.90
26112;BME280;13829;48.990;8.346;2022-07-06T03:30:54;101133.38;;;17.77;66.40
26112;BME280;13829;48.990;8.346;2022-07-06T03:33:21;101133.50;;;17.68;66.50
26112;BME280;13829;48.990;8.346;2022-07-06T03:35:48;101134.47;;;17.62;67.12
26112;BME280;13829;48.990;8.346;2022-07-06T03:38:17;101128.88;;;17.84;66.17
26112;BME280;13829;48.990;8.346;2022-07-06T03:40:44;101128.91;;;17.79;66.35
26112;BME280;13829;48.990;8.346;2022-07-06T03:43:11;101132.63;;;17.66;66.48
26112;BME280;13829;48.990;8.346;2022-07-06T03:45:38;101125.63;;;17.60;66.54
26112;BME280;13829;48.990;8.346;2022-07-06T03:48:06;101127.47;;;17.52;67.13
26112;BME280;13829;48.990;8.346;2022-07-06T03:50:33;101129.03;;;17.68;66.14
26112;BME280;13829;48.990;8.346;2022-07-06T03:53:00;101129.22;;;17.56;66.92
26112;BME280;13829;48.990;8.346;2022-07-06T03:55:28;101126.53;;;17.57;67.05
26112;BME280;13829;48.990;8.346;2022-07-06T03:57:55;101135.59;;;17.41;67.71
26112;BME280;13829;48.990;8.346;2022-07-06T04:00:22;101133.81;;;17.41;67.32
26112;BME280;13829;48.990;8.346;2022-07-06T04:02:49;101139.16;;;17.38;66.96
26112;BME280;13829;48.990;8.346;2022-07-06T04:05:16;101137.31;;;17.45;66.73
26112;BME280;13829;48.990;8.346;2022-07-06T04:07:46;101137.03;;;17.68;65.69
26112;BME280;13829;48.990;8.346;2022-07-06T04:10:13;101140.59;;;17.67;65.24
26112;BME280;13829;48.990;8.346;2022-07-06T04:12:42;101144.44;;;17.43;65.68
26112;BME280;13829;48.990;8.346;2022-07-06T04:15:11;101140.78;;;17.53;65.77
26112;BME280;13829;48.990;8.346;2022-07-06T04:17:38;101143.28;;;17.64;64.85
26112;BME280;13829;48.990;8.346;2022-07-06T04:20:23;101153.00;;;17.70;64.75
26112;BME280;13829;48.990;8.346;2022-07-06T04:22:51;101149.22;;;17.86;64.98
26112;BME280;13829;48.990;8.346;2022-07-06T04:25:19;101151.03;;;17.83;64.37
26112;BME280;13829;48.990;8.346;2022-07-06T04:27:47;101151.28;;;17.63;64.87
26112;BME280;13829;48.990;8.346;2022-07-06T04:30:14;101162.06;;;17.53;65.59
26112;BME280;13829;48.990;8.346;2022-07-06T04:32:41;101159.31;;;17.59;65.16
26112;BME280;13829;48.990;8.346;2022-07-06T04:35:09;101156.63;;;17.61;65.25
26112;BME280;13829;48.990;8.346;2022-07-06T04:37:36;101167.38;;;17.53;65.57
26112;BME280;13829;48.990;8.346;2022-07-06T04:40:04;101165.47;;;17.65;64.99
26112;BME280;13829;48.990;8.346;2022-07-06T04:42:31;101158.47;;;17.56;65.05
26112;BME280;13829;48.990;8.346;2022-07-06T04:44:59;101160.94;;;17.71;64.01
26112;BME280;13829;48.990;8.346;2022-07-06T04:47:26;101168.91;;;17.73;65.19
26112;BME280;13829;48.990;8.346;2022-07-06T04:49:53;101162.50;;;17.88;63.68
26112;BME280;13829;48.990;8.346;2022-07-06T04:52:20;101169.69;;;17.80;63.73
26112;BME280;13829;48.990;8.346;2022-07-06T04:54:47;101167.81;;;17.88;63.31
26112;BME280;13829;48.990;8.346;2022-07-06T04:57:14;101170.72;;;17.71;63.74
26112;BME280;13829;48.990;8.346;2022-07-06T04:59:41;101173.41;;;17.66;63.62
26112;BME280;13829;48.990;8.346;2022-07-06T05:02:09;101171.41;;;17.85;62.40
26112;BME280;13829;48.990;8.346;2022-07-06T05:04:36;101175.28;;;17.58;63.00
26112;BME280;13829;48.990;8.346;2022-07-06T05:07:03;101173.28;;;17.77;62.82
26112;BME280;13829;48.990;8.346;2022-07-06T05:09:31;101175.94;;;17.79;63.11
26112;BME280;13829;48.990;8.346;2022-07-06T05:11:58;101177.44;;;18.03;62.10
26112;BME280;13829;48.990;8.346;2022-07-06T05:14:26;101182.16;;;17.77;62.20
26112;BME280;13829;48.990;8.346;2022-07-06T05:16:53;101190.84;;;17.93;61.47
26112;BME280;13829;48.990;8.346;2022-07-06T05:19:21;101185.56;;;17.89;62.01
26112;BME280;13829;48.990;8.346;2022-07-06T05:21:48;101190.97;;;17.80;62.12
26112;BME280;13829;48.990;8.346;2022-07-06T05:24:15;101189.06;;;17.91;61.75
26112;BME280;13829;48.990;8.346;2022-07-06T05:26:42;101182.53;;;18.18;60.93
26112;BME280;13829;48.990;8.346;2022-07-06T05:29:09;101180.75;;;18.20;61.49
26112;BME280;13829;48.990;8.346;2022-07-06T05:31:36;101188.53;;;18.34;60.31
26112;BME280;13829;48.990;8.346;2022-07-06T05:34:03;101186.19;;;18.70;59.30
26112;BME280;13829;48.990;8.346;2022-07-06T05:36:31;101194.38;;;18.56;58.88
26112;BME280;13829;48.990;8.346;2022-07-06T05:38:58;101187.41;;;18.48;59.24
26112;BME280;13829;48.990;8.346;2022-07-06T05:41:25;101193.56;;;18.53;59.46
26112;BME280;13829;48.990;8.346;2022-07-06T05:43:52;101198.69;;;18.65;60.14
26112;BME280;13829;48.990;8.346;2022-07-06T05:46:19;101199.25;;;18.87;59.16
26112;BME280;13829;48.990;8.346;2022-07-06T05:48:46;101198.97;;;19.04;57.57
26112;BME280;13829;48.990;8.346;2022-07-06T05:51:32;101195.31;;;19.12;57.60
26112;BME280;13829;48.990;8.346;2022-07-06T05:53:59;101199.03;;;19.01;57.24
26112;BME280;13829;48.990;8.346;2022-07-06T05:56:26;101192.97;;;18.92;57.88
26112;BME280;13829;48.990;8.346;2022-07-06T05:58:53;101193.88;;;18.90;58.05
26112;BME280;13829;48.990;8.346;2022-07-06T06:01:19;101203.84;;;19.31;58.10
26112;BME280;13829;48.990;8.346;2022-07-06T06:03:46;101184.16;;;19.82;57.42
26112;BME280;13829;48.990;8.346;2022-07-06T06:06:13;101199.47;;;20.16;55.23
26112;BME280;13829;48.990;8.346;2022-07-06T06:08:42;101196.56;;;20.64;53.23
26112;BME280;13829;48.990;8.346;2022-07-06T06:11:09;101192.47;;;20.87;52.45
26112;BME280;13829;48.990;8.346;2022-07-06T06:13:36;101196.75;;;20.94;51.50
26112;BME280;13829;48.990;8.346;2022-07-06T06:16:03;101207.63;;;20.49;52.06
26112;BME280;13829;48.990;8.346;2022-07-06T06:18:31;101210.53;;;20.40;52.96
26112;BME280;13829;48.990;8.346;2022-07-06T06:20:57;101214.78;;;20.08;53.44
26112;BME280;13829;48.990;8.346;2022-07-06T06:23:24;101213.06;;;20.46;54.72
26112;BME280;13829;48.990;8.346;2022-07-06T06:25:53;101204.13;;;21.19;52.99
26112;BME280;13829;48.990;8.346;2022-07-06T06:28:20;101199.78;;;21.48;50.45
26112;BME280;13829;48.990;8.346;2022-07-06T06:30:47;101202.59;;;22.06;48.67
26112;BME280;13829;48.990;8.346;2022-07-06T06:33:16;101204.50;;;22.03;48.15
26112;BME280;13829;48.990;8.346;2022-07-06T06:35:46;101213.78;;;21.59;48.67
26112;BME280;13829;48.990;8.346;2022-07-06T06:38:14;101204.03;;;21.57;49.32
26112;BME280;13829;48.990;8.346;2022-07-06T06:40:41;101212.19;;;21.85;49.16
26112;BME280;13829;48.990;8.346;2022-07-06T06:43:09;101210.28;;;22.48;47.54
26112;BME280;13829;48.990;8.346;2022-07-06T06:45:36;101203.06;;;23.56;44.65
26112;BME280;13829;48.990;8.346;2022-07-06T06:48:04;101216.84;;;24.20;42.27
26112;BME280;13829;48.990;8.346;2022-07-06T06:50:31;101211.53;;;24.40;41.45
26112;BME280;13829;48.990;8.346;2022-07-06T06:52:58;101205.84;;;24.92;40.47
26112;BME280;13829;48.990;8.346;2022-07-06T06:55:26;101209.88;;;25.03;40.20
26112;BME280;13829;48.990;8.346;2022-07-06T06:57:53;101211.56;;;25.05;40.40
26112;BME280;13829;48.990;8.346;2022-07-06T07:00:21;101215.34;;;25.01;39.87
26112;BME280;13829;48.990;8.346;2022-07-06T07:02:48;101207.09;;;25.68;39.44
26112;BME280;13829;48.990;8.346;2022-07-06T07:05:15;101208.25;;;26.77;36.93
26112;BME280;13829;48.990;8.346;2022-07-06T07:07:42;101204.59;;;27.81;34.96
26112;BME280;13829;48.990;8.346;2022-07-06T07:10:09;101209.31;;;28.11;33.54
26112;BME280;13829;48.990;8.346;2022-07-06T07:12:43;101204.59;;;27.81;34.52
26112;BME280;13829;48.990;8.346;2022-07-06T07:15:10;101216.59;;;26.90;35.97
26112;BME280;13829;48.990;8.346;2022-07-06T07:17:40;101206.94;;;28.37;34.69
26112;BME280;13829;48.990;8.346;2022-07-06T07:20:08;101207.28;;;28.63;33.67
26112;BME280;13829;48.990;8.346;2022-07-06T07:22:35;101205.38;;;28.33;33.75
26112;BME280;13829;48.990;8.346;2022-07-06T07:25:03;101195.28;;;30.02;31.33
26112;BME280;13829;48.990;8.346;2022-07-06T07:27:31;101205.09;;;29.16;32.18
26112;BME280;13829;48.990;8.346;2022-07-06T07:29:58;101206.88;;;29.01;32.04
26112;BME280;13829;48.990;8.346;2022-07-06T07:32:25;101212.56;;;28.34;34.06
26112;BME280;13829;48.990;8.346;2022-07-06T07:34:53;101203.59;;;28.80;33.26
26112;BME280;13829;48.990;8.346;2022-07-06T07:37:20;101204.47;;;28.80;33.29
26112;BME280;13829;48.990;8.346;2022-07-06T07:39:47;101204.88;;;29.35;33.85
26112;BME280;13829;48.990;8.346;2022-07-06T07:42:14;101205.53;;;29.08;33.17
26112;BME280;13829;48.990;8.346;2022-07-06T07:44:41;101205.34;;;29.85;30.32
26112;BME280;13829;48.990;8.346;2022-07-06T07:47:08;101199.50;;;29.03;32.95
26112;BME280;13829;48.990;8.346;2022-07-06T07:49:35;101203.13;;;29.77;32.49
26112;BME280;13829;48.990;8.346;2022-07-06T07:52:04;101204.88;;;30.77;30.33
26112;BME280;13829;48.990;8.346;2022-07-06T07:54:31;101202.34;;;30.04;31.43
26112;BME280;13829;48.990;8.346;2022-07-06T07:56:58;101197.25;;;30.69;31.47
26112;BME280;13829;48.990;8.346;2022-07-06T07:59:26;101190.97;;;30.68;30.87
26112;BME280;13829;48.990;8.346;2022-07-06T08:01:53;101190.09;;;30.81;30.17
26112;BME280;13829;48.990;8.346;2022-07-06T08:04:20;101200.25;;;30.91;28.91
26112;BME280;13829;48.990;8.346;2022-07-06T08:06:48;101193.91;;;29.51;31.13
26112;BME280;13829;48.990;8.346;2022-07-06T08:09:16;101192.97;;;28.61;32.92
26112;BME280;13829;48.990;8.346;2022-07-06T08:11:43;101203.28;;;28.54;32.52
26112;BME280;13829;48.990;8.346;2022-07-06T08:14:10;101195.63;;;28.30;33.11
26112;BME280;13829;48.990;8.346;2022-07-06T08:16:40;101197.28;;;28.95;34.11
26112;BME280;13829;48.990;8.346;2022-07-06T08:19:07;101197.88;;;28.38;33.33
26112;BME280;13829;48.990;8.346;2022-07-06T08:21:34;101188.66;;;27.93;34.53
26112;BME280;13829;48.990;8.346;2022-07-06T08:24:02;101193.56;;;27.53;34.03
26112;BME280;13829;48.990;8.346;2022-07-06T08:26:30;101197.94;;;26.85;35.04
26112;BME280;13829;48.990;8.346;2022-07-06T08:28:57;101195.59;;;26.02;36.47
26112;BME280;13829;48.990;8.346;2022-07-06T08:31:25;101204.38;;;25.27;37.65
26112;BME280;13829;48.990;8.346;2022-07-06T08:33:52;101201.69;;;26.08;38.66
26112;BME280;13829;48.990;8.346;2022-07-06T08:36:20;101198.03;;;26.28;36.26
26112;BME280;13829;48.990;8.346;2022-07-06T08:38:47;101200.63;;;26.48;36.44
26112;BME280;13829;48.990;8.346;2022-07-06T08:41:16;101191.41;;;26.72;36.37
26112;BME280;13829;48.990;8.346;2022-07-06T08:43:44;101193.22;;;27.59;37.75
26112;BME280;13829;48.990;8.346;2022-07-06T08:46:13;101195.44;;;28.18;35.28
26112;BME280;13829;48.990;8.346;2022-07-06T08:48:41;101198.56;;;28.26;33.21
26112;BME280;13829;48.990;8.346;2022-07-06T08:51:08;101205.03;;;27.40;34.69
26112;BME280;13829;48.990;8.346;2022-07-06T08:53:36;101208.03;;;27.52;34.80
26112;BME280;13829;48.990;8.346;2022-07-06T08:56:04;101202.97;;;27.95;36.11
26112;BME280;13829;48.990;8.346;2022-07-06T08:58:31;101218.75;;;27.87;33.08
26112;BME280;13829;48.990;8.346;2022-07-06T09:01:00;101208.59;;;26.88;34.82
26112;BME280;13829;48.990;8.346;2022-07-06T09:03:28;101210.19;;;26.36;36.35
26112;BME280;13829;48.990;8.346;2022-07-06T09:06:01;101215.81;;;27.05;35.93
26112;BME280;13829;48.990;8.346;2022-07-06T09:08:31;101213.16;;;27.40;36.11
26112;BME280;13829;48.990;8.346;2022-07-06T09:10:58;101211.03;;;27.63;34.06
26112;BME280;13829;48.990;8.346;2022-07-06T09:13:25;101211.38;;;27.57;35.87
26112;BME280;13829;48.990;8.346;2022-07-06T09:15:52;101203.69;;;27.65;37.26
26112;BME280;13829;48.990;8.346;2022-07-06T09:18:22;101200.22;;;27.63;35.81
26112;BME280;13829;48.990;8.346;2022-07-06T09:20:49;101223.13;;;27.21;34.85
26112;BME280;13829;48.990;8.346;2022-07-06T09:23:17;101218.34;;;27.08;35.41
26112;BME280;13829;48.990;8.346;2022-07-06T09:25:48;101207.94;;;26.64;36.26
26112;BME280;13829;48.990;8.346;2022-07-06T09:28:15;101212.09;;;25.56;37.33
26112;BME280;13829;48.990;8.346;2022-07-06T09:30:42;101220.84;;;25.62;37.04
26112;BME280;13829;48.990;8.346;2022-07-06T09:33:09;101220.28;;;25.74;37.55
26112;BME280;13829;48.990;8.346;2022-07-06T09:35:39;101218.94;;;25.83;38.01
26112;BME280;13829;48.990;8.346;2022-07-06T09:38:10;101221.34;;;26.29;37.26
26112;BME280;13829;48.990;8.346;2022-07-06T09:40:39;101222.63;;;26.58;36.36
26112;BME280;13829;48.990;8.346;2022-07-06T09:43:12;101217.09;;;26.04;36.28
26112;BME280;13829;48.990;8.346;2022-07-06T09:45:42;101218.53;;;25.73;36.53
26112;BME280;13829;48.990;8.346;2022-07-06T09:48:13;101217.88;;;25.47;38.07
26112;BME280;13829;48.990;8.346;2022-07-06T09:50:45;101221.16;;;25.94;39.48
26112;BME280;13829;48.990;8.346;2022-07-06T09:53:13;101217.59;;;25.53;38.26
26112;BME280;13829;48.990;8.346;2022-07-06T09:55:44;101221.13;;;26.14;40.42
26112;BME280;13829;48.990;8.346;2022-07-06T09:58:11;101216.38;;;26.19;39.18
26112;BME280;13829;48.990;8.346;2022-07-06T10:00:39;101225.91;;;25.06;37.58
26112;BME280;13829;48.990;8.346;2022-07-06T10:03:07;101211.53;;;25.07;38.21
26112;BME280;13829;48.990;8.346;2022-07-06T10:05:38;101206.50;;;24.77;38.91
26112;BME280;13829;48.990;8.346;2022-07-06T10:08:08;101218.03;;;25.01;40.31
26112;BME280;13829;48.990;8.346;2022-07-06T10:10:38;101224.44;;;24.08;39.23
26112;BME280;13829;48.990;8.346;2022-07-06T10:13:06;101219.88;;;24.56;41.49
26112;BME280;13829;48.990;8.346;2022-07-06T10:15:36;101211.91;;;24.98;41.36
26112;BME280;13829;48.990;8.346;2022-07-06T10:18:05;101221.22;;;25.32;38.85
26112;BME280;13829;48.990;8.346;2022-07-06T10:20:35;101217.81;;;25.49;38.67
26112;BME280;13829;48.990;8.346;2022-07-06T10:23:07;101218.13;;;25.62;40.62
26112;BME280;13829;48.990;8.346;2022-07-06T10:25:35;101210.81;;;25.84;40.64
26112;BME280;13829;48.990;8.346;2022-07-06T10:28:03;101213.03;;;26.14;39.82
26112;BME280;13829;48.990;8.346;2022-07-06T10:30:40;101223.69;;;26.17;39.18
26112;BME280;13829;48.990;8.346;2022-07-06T10:33:08;101211.88;;;26.20;38.00
26112;BME280;13829;48.990;8.346;2022-07-06T10:35:39;101210.09;;;26.00;37.08
26112;BME280;13829;48.990;8.346;2022-07-06T10:38:09;101211.44;;;26.10;39.16
26112;BME280;13829;48.990;8.346;2022-07-06T10:40:38;101206.50;;;26.20;39.05
26112;BME280;13829;48.990;8.346;2022-07-06T10:43:31;101205.91;;;26.13;37.78
26112;BME280;13829;48.990;8.346;2022-07-06T10:45:58;101196.09;;;25.92;38.64
26112;BME280;13829;48.990;8.346;2022-07-06T10:48:34;101201.75;;;25.66;38.93
26112;BME280;13829;48.990;8.346;2022-07-06T10:51:01;101213.84;;;25.58;39.55
26112;BME280;13829;48.990;8.346;2022-07-06T10:53:33;101206.63;;;25.58;40.17
26112;BME280;13829;48.990;8.346;2022-07-06T10:56:03;101210.72;;;25.67;39.81
26112;BME280;13829;48.990;8.346;2022-07-06T10:58:37;101216.78;;;25.72;39.60
26112;BME280;13829;48.990;8.346;2022-07-06T11:01:06;101206.16;;;25.88;39.33
26112;BME280;13829;48.990;8.346;2022-07-06T11:03:39;101213.66;;;25.81;37.86
26112;BME280;13829;48.990;8.346;2022-07-06T11:06:10;101204.50;;;25.65;38.24
26112;BME280;13829;48.990;8.346;2022-07-06T11:08:54;101203.06;;;25.58;39.00
26112;BME280;13829;48.990;8.346;2022-07-06T11:11:25;101208.41;;;24.96;40.05
26112;BME280;13829;48.990;8.346;2022-07-06T11:13:56;101198.53;;;24.96;41.42
26112;BME280;13829;48.990;8.346;2022-07-06T11:16:26;101199.53;;;25.14;41.90
26112;BME280;13829;48.990;8.346;2022-07-06T11:19:06;101198.06;;;25.07;41.41
26112;BME280;13829;48.990;8.346;2022-07-06T11:21:55;101203.22;;;25.12;41.40
26112;BME280;13829;48.990;8.346;2022-07-06T11:24:27;101196.97;;;25.32;41.62
26112;BME280;13829;48.990;8.346;2022-07-06T11:26:56;101191.75;;;25.49;39.80
26112;BME280;13829;48.990;8.346;2022-07-06T11:29:26;101201.94;;;25.43;41.70
26112;BME280;13829;48.990;8.346;2022-07-06T11:31:55;101188.41;;;25.44;41.60
26112;BME280;13829;48.990;8.346;2022-07-06T11:34:25;101188.13;;;25.50;41.02
26112;BME280;13829;48.990;8.346;2022-07-06T11:36:56;101185.34;;;25.52;41.19
26112;BME280;13829;48.990;8.346;2022-07-06T11:39:28;101182.06;;;25.45;41.58
26112;BME280;13829;48.990;8.346;2022-07-06T11:41:56;101184.69;;;25.47;40.65
26112;BME280;13829;48.990;8.346;2022-07-06T11:44:24;101178.56;;;25.43;40.09
26112;BME280;13829;48.990;8.346;2022-07-06T11:46:51;101172.09;;;25.47;40.41
26112;BME280;13829;48.990;8.346;2022-07-06T11:49:18;101176.19;;;25.56;40.44
26112;BME280;13829;48.990;8.346;2022-07-06T11:51:46;101170.88;;;25.54;41.17
26112;BME280;13829;48.990;8.346;2022-07-06T11:54:16;101168.06;;;25.58;40.50
26112;BME280;13829;48.990;8.346;2022-07-06T11:56:50;101172.25;;;25.44;40.77
26112;BME280;13829;48.990;8.346;2022-07-06T11:59:22;101166.97;;;25.20;40.36
26112;BME280;13829;48.990;8.346;2022-07-06T12:01:56;101166.72;;;24.85;40.15
26112;BME280;13829;48.990;8.346;2022-07-06T12:04:25;101165.97;;;24.82;42.04
26112;BME280;13829;48.990;8.346;2022-07-06T12:06:52;101160.78;;;24.98;41.39
26112;BME280;13829;48.990;8.346;2022-07-06T12:09:19;101160.16;;;25.12;42.42
26112;BME280;13829;48.990;8.346;2022-07-06T12:11:48;101155.41;;;25.39;40.68
26112;BME280;13829;48.990;8.346;2022-07-06T12:14:17;101156.91;;;25.46;41.90
26112;BME280;13829;48.990;8.346;2022-07-06T12:16:48;101157.94;;;25.42;41.25
26112;BME280;13829;48.990;8.346;2022-07-06T12:19:16;101150.53;;;25.27;41.70
26112;BME280;13829;48.990;8.346;2022-07-06T12:21:46;101146.91;;;25.28;41.28
26112;BME280;13829;48.990;8.346;2022-07-06T12:24:19;101142.34;;;25.30;39.87
26112;BME280;13829;48.990;8.346;2022-07-06T12:26:48;101140.19;;;25.17;40.09
26112;BME280;13829;48.990;8.346;2022-07-06T12:29:16;101135.34;;;25.05;40.22
26112;BME280;13829;48.990;8.346;2022-07-06T12:31:48;101136.50;;;24.99;41.69
26112;BME280;13829;48.990;8.346;2022-07-06T12:34:18;101143.00;;;25.14;40.33
26112;BME280;13829;48.990;8.346;2022-07-06T12:36:47;101139.13;;;25.01;40.71
26112;BME280;13829;48.990;8.346;2022-07-06T12:39:17;101133.47;;;25.07;40.98
26112;BME280;13829;48.990;8.346;2022-07-06T12:41:48;101129.53;;;25.14;41.89
26112;BME280;13829;48.990;8.346;2022-07-06T12:44:18;101124.56;;;25.26;41.32
26112;BME280;13829;48.990;8.346;2022-07-06T12:46:46;101130.16;;;25.21;41.79
26112;BME280;13829;48.990;8.346;2022-07-06T12:49:17;101135.75;;;25.16;41.02
26112;BME280;13829;48.990;8.346;2022-07-06T12:51:54;101132.94;;;24.99;41.21
26112;BME280;13829;48.990;8.346;2022-07-06T12:54:23;101135.47;;;24.81;41.43
26112;BME280;13829;48.990;8.346;2022-07-06T12:57:08;101123.34;;;24.71;41.62